createdAt,value
2019-02-15T00:00:39.728Z,37.25
2019-02-15T00:03:09.156Z,40.52
2019-02-15T00:05:39.412Z,37.15
2019-02-15T00:08:08.785Z,36.13
2019-02-15T00:10:38.205Z,38.63
2019-02-15T00:13:13.277Z,34.83
2019-02-15T00:15:38.744Z,38.53
2019-02-15T00:18:09.872Z,37.70
2019-02-15T00:20:46.643Z,37.95
2019-02-15T00:23:16.043Z,39.00
2019-02-15T00:25:45.386Z,39.90
2019-02-15T00:28:14.839Z,40.60
2019-02-15T00:30:44.241Z,42.85
2019-02-15T00:33:13.965Z,42.08
2019-02-15T00:35:43.336Z,38.53
2019-02-15T00:38:12.731Z,51.23
2019-02-15T00:40:42.475Z,37.55
2019-02-15T00:43:11.932Z,38.35
2019-02-15T00:45:45.585Z,42.73
2019-02-15T00:50:53.216Z,36.00
2019-02-15T00:53:41.462Z,38.45
2019-02-15T00:56:12.793Z,36.42
2019-02-15T00:59:00.405Z,41.63
2019-02-15T01:01:37.115Z,37.55
2019-02-15T01:04:11.223Z,39.88
2019-02-15T01:06:51.024Z,38.17
2019-02-15T01:09:22.037Z,40.92
2019-02-15T01:11:58.702Z,40.30
2019-02-15T01:14:28.082Z,36.75
2019-02-15T01:16:57.400Z,40.23
2019-02-15T01:19:26.746Z,36.45
2019-02-15T01:21:56.104Z,43.00
2019-02-15T01:24:25.496Z,38.70
2019-02-15T01:26:56.530Z,38.88
2019-02-15T01:29:27.639Z,37.88
2019-02-15T01:32:14.070Z,33.75
2019-02-15T01:34:47.680Z,39.20
2019-02-15T01:40:07.963Z,41.68
2019-02-15T01:42:55.545Z,37.35
2019-02-15T01:45:26.619Z,37.83
2019-02-15T01:47:55.920Z,41.68
2019-02-15T01:50:25.656Z,31.77
2019-02-15T01:52:55.122Z,45.92
2019-02-15T01:55:24.511Z,44.23
2019-02-15T01:57:54.209Z,39.38
2019-02-15T02:00:25.205Z,39.75
2019-02-15T02:02:54.672Z,33.95
2019-02-15T02:05:24.004Z,44.35
2019-02-15T02:07:53.443Z,35.48
2019-02-15T02:10:22.778Z,37.75
2019-02-15T02:12:52.432Z,36.48
2019-02-15T02:15:21.792Z,39.83
2019-02-15T02:17:51.435Z,33.90
2019-02-15T02:20:20.764Z,38.35
2019-02-15T02:22:50.128Z,39.55
2019-02-15T02:25:20.429Z,36.23
2019-02-15T02:27:49.822Z,31.45
2019-02-15T02:30:19.268Z,32.78
2019-02-15T02:32:48.649Z,40.85
2019-02-15T02:35:18.385Z,33.05
2019-02-15T02:37:47.884Z,29.87
2019-02-15T02:40:17.610Z,36.73
2019-02-15T02:42:47.068Z,34.50
2019-02-15T02:45:16.423Z,37.98
2019-02-15T02:47:45.817Z,34.48
2019-02-15T02:50:15.718Z,34.15
2019-02-15T02:52:45.166Z,36.42
2019-02-15T02:55:14.937Z,30.02
2019-02-15T02:57:44.289Z,30.48
2019-02-15T03:00:14.035Z,34.73
2019-02-15T03:02:43.374Z,29.20
2019-02-15T03:05:12.835Z,32.33
2019-02-15T03:07:42.774Z,30.77
2019-02-15T03:10:12.241Z,33.83
2019-02-15T03:12:41.568Z,36.63
2019-02-15T03:15:11.006Z,32.15
2019-02-15T03:17:40.548Z,32.42
2019-02-15T03:20:10.300Z,29.35
2019-02-15T03:22:40.004Z,30.60
2019-02-15T03:25:09.472Z,30.80
2019-02-15T03:27:39.334Z,32.60
2019-02-15T03:30:10.156Z,31.37
2019-02-15T03:32:39.481Z,33.65
2019-02-15T03:35:09.512Z,33.90
2019-02-15T03:37:40.516Z,34.70
2019-02-15T03:40:11.491Z,37.83
2019-02-15T03:42:40.919Z,35.95
2019-02-15T03:45:10.341Z,33.80
2019-02-15T03:47:39.969Z,32.50
2019-02-15T03:50:09.671Z,32.30
2019-02-15T03:52:39.099Z,36.48
2019-02-15T03:55:08.798Z,32.13
2019-02-15T03:57:38.255Z,31.30
2019-02-15T04:00:13.020Z,37.60
2019-02-15T04:02:42.352Z,32.88
2019-02-15T04:05:12.857Z,28.35
2019-02-15T04:07:42.254Z,34.88
2019-02-15T04:10:11.698Z,34.00
2019-02-15T04:12:41.587Z,32.42
2019-02-15T04:15:11.044Z,33.02
2019-02-15T04:17:40.379Z,30.75
2019-02-15T04:20:09.739Z,33.08
2019-02-15T04:22:39.186Z,33.65
2019-02-15T04:25:08.563Z,31.87
2019-02-15T04:27:37.878Z,29.23
2019-02-15T04:30:10.201Z,26.07
2019-02-15T04:32:39.876Z,30.40
2019-02-15T04:35:09.475Z,34.92
2019-02-15T04:37:39.214Z,28.05
2019-02-15T04:40:09.503Z,25.43
2019-02-15T04:42:40.192Z,28.12
2019-02-15T04:45:09.960Z,26.68
2019-02-15T04:47:39.787Z,30.40
2019-02-15T04:50:09.673Z,30.02
2019-02-15T04:52:39.030Z,33.25
2019-02-15T04:55:08.906Z,32.70
2019-02-15T04:57:38.252Z,27.10
2019-02-15T05:00:09.442Z,26.73
2019-02-15T05:02:38.763Z,27.80
2019-02-15T05:05:08.173Z,31.45
2019-02-15T05:07:37.758Z,24.07
2019-02-15T05:10:07.034Z,25.80
2019-02-15T05:12:37.444Z,25.50
2019-02-15T05:15:08.521Z,24.02
2019-02-15T05:17:37.912Z,25.40
2019-02-15T05:20:08.266Z,25.60
2019-02-15T05:22:37.640Z,25.50
2019-02-15T05:25:06.955Z,26.42
2019-02-15T05:27:36.357Z,23.12
2019-02-15T05:30:07.582Z,31.25
2019-02-15T05:32:37.317Z,27.70
2019-02-15T05:35:07.044Z,31.00
2019-02-15T05:37:36.393Z,34.23
2019-02-15T05:40:06.469Z,32.00
2019-02-15T05:42:35.871Z,32.88
2019-02-15T05:45:06.769Z,33.75
2019-02-15T05:47:36.392Z,30.72
2019-02-15T05:50:06.634Z,31.10
2019-02-15T05:52:36.013Z,29.10
2019-02-15T05:55:06.658Z,38.08
2019-02-15T05:57:36.144Z,27.15
2019-02-15T06:00:08.949Z,30.17
2019-02-15T06:02:39.354Z,29.10
2019-02-15T06:05:09.370Z,31.48
2019-02-15T06:07:39.080Z,35.33
2019-02-15T06:10:09.365Z,36.40
2019-02-15T06:12:38.784Z,34.92
2019-02-15T06:15:15.303Z,33.28
2019-02-15T06:17:39.430Z,35.30
2019-02-15T06:20:08.774Z,34.85
2019-02-15T06:22:38.479Z,34.63
2019-02-15T06:25:07.887Z,34.73
2019-02-15T06:27:37.214Z,37.15
2019-02-15T06:30:08.751Z,37.63
2019-02-15T06:32:38.214Z,32.83
2019-02-15T06:35:07.591Z,31.23
2019-02-15T06:37:36.962Z,33.28
2019-02-15T06:40:06.842Z,32.17
2019-02-15T06:42:36.402Z,34.27
2019-02-15T06:45:07.804Z,35.20
2019-02-15T06:47:37.147Z,37.65
2019-02-15T06:50:07.834Z,34.55
2019-02-15T06:52:37.307Z,33.83
2019-02-15T06:55:07.388Z,32.90
2019-02-15T06:57:37.270Z,33.40
2019-02-15T07:00:27.743Z,33.65
2019-02-15T07:03:03.023Z,36.70
2019-02-15T07:05:32.460Z,30.23
2019-02-15T07:08:01.844Z,34.63
2019-02-15T07:10:31.244Z,32.40
2019-02-15T07:13:00.800Z,28.75
2019-02-15T07:15:33.846Z,35.03
2019-02-15T07:18:01.423Z,35.43
2019-02-15T07:20:32.215Z,40.15
2019-02-15T07:23:01.635Z,31.12
2019-02-15T07:25:30.951Z,44.48
2019-02-15T07:28:00.506Z,30.35
2019-02-15T07:30:29.966Z,30.12
2019-02-15T07:32:59.423Z,36.25
2019-02-15T07:35:30.273Z,35.65
2019-02-15T07:37:59.747Z,39.08
2019-02-15T07:40:29.095Z,35.28
2019-02-15T07:42:58.518Z,39.42
2019-02-15T07:45:27.857Z,40.58
2019-02-15T07:47:58.676Z,40.10
2019-02-15T07:50:28.183Z,42.10
2019-02-15T07:52:57.712Z,42.75
2019-02-15T07:55:27.120Z,33.88
2019-02-15T07:57:56.471Z,51.58
2019-02-15T08:00:26.248Z,35.68
2019-02-15T08:02:55.780Z,40.70
2019-02-15T08:05:25.203Z,44.77
2019-02-15T08:07:54.609Z,45.85
2019-02-15T08:10:24.379Z,39.25
2019-02-15T08:12:54.185Z,31.40
2019-02-15T08:15:23.502Z,30.85
2019-02-15T08:17:52.837Z,34.18
2019-02-15T08:20:22.597Z,35.65
2019-02-15T08:22:52.302Z,34.53
2019-02-15T08:25:21.624Z,33.88
2019-02-15T08:27:51.407Z,29.98
2019-02-15T08:30:22.126Z,33.33
2019-02-15T08:32:51.548Z,34.73
2019-02-15T08:35:21.063Z,39.35
2019-02-15T08:37:50.878Z,33.50
2019-02-15T08:40:20.243Z,36.98
2019-02-15T08:42:49.645Z,32.13
2019-02-15T08:45:18.969Z,28.27
2019-02-15T08:47:48.702Z,27.20
2019-02-15T08:50:18.091Z,27.62
2019-02-15T08:52:47.435Z,34.03
2019-02-15T08:55:16.763Z,30.90
2019-02-15T08:57:46.496Z,24.70
2019-02-15T09:00:15.886Z,38.15
2019-02-15T09:02:45.337Z,28.25
2019-02-15T09:05:15.213Z,31.68
2019-02-15T09:07:44.613Z,24.57
2019-02-15T09:10:14.096Z,29.23
2019-02-15T09:12:43.604Z,25.50
2019-02-15T09:15:18.454Z,25.35
2019-02-15T09:17:47.822Z,21.55
2019-02-15T09:20:17.589Z,25.30
2019-02-15T09:22:47.237Z,25.45
2019-02-15T09:25:17.831Z,29.27
2019-02-15T09:28:05.123Z,23.80
2019-02-15T09:30:34.947Z,32.75
2019-02-15T09:33:04.646Z,25.52
2019-02-15T09:35:35.056Z,29.10
2019-02-15T09:38:04.786Z,25.17
2019-02-15T09:40:34.508Z,31.68
2019-02-15T09:43:04.047Z,27.10
2019-02-15T09:45:33.407Z,25.82
2019-02-15T09:48:02.736Z,25.10
2019-02-15T09:50:32.139Z,26.52
2019-02-15T09:53:01.686Z,29.67
2019-02-15T09:55:32.563Z,25.65
2019-02-15T09:58:01.936Z,28.75
2019-02-15T10:00:31.377Z,26.42
2019-02-15T10:03:00.713Z,27.77
2019-02-15T10:05:30.125Z,31.50
2019-02-15T10:08:00.597Z,30.95
2019-02-15T10:10:29.958Z,34.30
2019-02-15T10:12:59.342Z,30.43
2019-02-15T10:15:28.685Z,32.95
2019-02-15T10:17:58.075Z,34.63
2019-02-15T10:20:27.463Z,42.15
2019-02-15T10:22:56.837Z,37.80
2019-02-15T10:25:26.338Z,41.10
2019-02-15T10:27:55.705Z,35.23
2019-02-15T10:30:25.647Z,37.67
2019-02-15T10:32:55.045Z,37.93
2019-02-15T10:35:24.549Z,39.83
2019-02-15T10:37:53.883Z,37.10
2019-02-15T10:40:23.697Z,44.13
2019-02-15T10:42:53.036Z,41.30
2019-02-15T10:45:22.571Z,47.17
2019-02-15T10:47:52.066Z,48.95
2019-02-15T10:50:21.870Z,43.83
2019-02-15T10:52:51.195Z,48.95
2019-02-15T10:55:20.525Z,55.80
2019-02-15T10:57:50.039Z,52.73
2019-02-15T11:00:19.964Z,52.10
2019-02-15T11:02:49.434Z,47.10
2019-02-15T11:05:19.139Z,45.25
2019-02-15T11:07:48.928Z,50.33
2019-02-15T11:10:18.645Z,52.23
2019-02-15T11:12:48.068Z,51.42
2019-02-15T11:15:18.048Z,51.70
2019-02-15T11:17:48.457Z,48.33
2019-02-15T11:20:18.880Z,47.67
2019-02-15T11:22:48.167Z,48.42
2019-02-15T11:25:17.597Z,47.67
2019-02-15T11:27:46.974Z,49.27
2019-02-15T11:30:16.916Z,49.45
2019-02-15T11:32:46.427Z,47.65
2019-02-15T11:35:15.869Z,50.30
2019-02-15T11:37:45.365Z,45.83
2019-02-15T11:40:15.365Z,45.30
2019-02-15T11:42:44.883Z,47.83
2019-02-15T11:45:14.965Z,41.35
2019-02-15T11:47:44.367Z,38.35
2019-02-15T11:50:14.889Z,42.27
2019-02-15T11:52:44.209Z,44.13
2019-02-15T11:55:13.603Z,44.83
2019-02-15T11:57:43.555Z,43.87
2019-02-15T12:00:17.839Z,36.33
2019-02-15T12:02:47.075Z,39.05
2019-02-15T12:05:16.984Z,40.33
2019-02-15T12:07:46.361Z,41.10
2019-02-15T12:10:15.725Z,42.43
2019-02-15T12:12:45.104Z,38.28
2019-02-15T12:15:14.884Z,37.45
2019-02-15T12:17:44.415Z,39.73
2019-02-15T12:20:15.270Z,41.92
2019-02-15T12:22:44.674Z,44.18
2019-02-15T12:25:14.085Z,41.68
2019-02-15T12:27:43.575Z,41.30
2019-02-15T12:30:16.643Z,43.00
2019-02-15T12:32:45.956Z,44.65
2019-02-15T12:35:15.490Z,43.00
2019-02-15T12:37:44.848Z,39.38
2019-02-15T12:40:14.249Z,40.05
2019-02-15T12:42:43.634Z,41.55
2019-02-15T12:45:14.258Z,44.08
2019-02-15T12:47:43.634Z,38.73
2019-02-15T12:50:16.069Z,43.08
2019-02-15T12:52:45.452Z,42.95
2019-02-15T12:55:14.770Z,41.08
2019-02-15T12:57:44.219Z,43.42
2019-02-15T13:00:17.865Z,43.92
2019-02-15T13:02:47.583Z,41.30
2019-02-15T13:05:17.062Z,42.62
2019-02-15T13:07:47.911Z,45.63
2019-02-15T13:10:18.963Z,41.88
2019-02-15T13:12:48.558Z,42.35
2019-02-15T13:15:17.943Z,44.20
2019-02-15T13:17:47.785Z,42.70
2019-02-15T13:20:17.178Z,47.60
2019-02-15T13:22:46.581Z,48.17
2019-02-15T13:25:16.044Z,43.85
2019-02-15T13:27:45.447Z,47.90
2019-02-15T13:30:16.271Z,48.50
2019-02-15T13:32:46.023Z,44.13
2019-02-15T13:35:22.000Z,42.93
2019-02-15T13:37:51.450Z,39.92
2019-02-15T13:40:20.935Z,45.05
2019-02-15T13:42:50.314Z,48.98
2019-02-15T13:45:19.846Z,45.88
2019-02-15T13:47:49.192Z,47.08
2019-02-15T13:50:19.153Z,45.12
2019-02-15T13:52:49.157Z,48.10
2019-02-15T13:55:19.060Z,43.28
2019-02-15T13:57:48.451Z,40.88
2019-02-15T14:00:18.569Z,49.58
2019-02-15T14:02:48.036Z,49.33
2019-02-15T14:05:17.436Z,47.17
2019-02-15T14:07:47.255Z,47.38
2019-02-15T14:10:16.904Z,41.35
2019-02-15T14:12:46.224Z,48.13
2019-02-15T14:15:15.613Z,47.65
2019-02-15T14:17:48.265Z,46.00
2019-02-15T14:20:16.366Z,46.08
2019-02-15T14:22:45.765Z,44.42
2019-02-15T14:25:15.102Z,48.02
2019-02-15T14:27:44.715Z,51.98
2019-02-15T14:30:17.055Z,44.93
2019-02-15T14:32:46.401Z,46.30
2019-02-15T14:35:15.787Z,45.15
2019-02-15T14:37:45.255Z,49.05
2019-02-15T14:40:15.059Z,44.55
2019-02-15T14:42:44.460Z,43.75
2019-02-15T14:45:14.359Z,48.90
2019-02-15T14:47:43.882Z,43.63
2019-02-15T14:50:14.817Z,54.60
2019-02-15T14:52:44.230Z,47.43
2019-02-15T14:55:14.041Z,51.53
2019-02-15T14:57:43.757Z,46.30
2019-02-15T15:00:14.075Z,51.85
2019-02-15T15:02:45.329Z,46.50
2019-02-15T15:05:14.670Z,46.45
2019-02-15T15:07:44.116Z,48.35
2019-02-15T15:10:13.721Z,48.08
2019-02-15T15:12:43.448Z,51.40
2019-02-15T15:15:14.939Z,50.30
2019-02-15T15:17:44.318Z,49.55
2019-02-15T15:20:13.933Z,43.13
2019-02-15T15:22:43.324Z,51.20
2019-02-15T15:25:14.929Z,64.58
2019-02-15T15:27:44.269Z,49.65
2019-02-15T15:30:14.971Z,50.90
2019-02-15T15:32:44.447Z,53.63
2019-02-15T15:35:14.341Z,59.00
2019-02-15T15:37:43.730Z,52.65
2019-02-15T15:40:14.875Z,53.02
2019-02-15T15:42:44.312Z,55.12
2019-02-15T15:45:13.725Z,45.17
2019-02-15T15:47:43.029Z,58.25
2019-02-15T15:50:12.800Z,50.73
2019-02-15T15:52:42.473Z,50.17
2019-02-15T15:55:13.519Z,57.90
2019-02-15T15:57:42.853Z,54.67
2019-02-15T16:00:13.925Z,53.38
2019-02-15T16:02:43.376Z,49.80
2019-02-15T16:05:12.675Z,50.43
2019-02-15T16:07:43.729Z,54.85
2019-02-15T16:10:14.436Z,59.08
2019-02-15T16:12:44.164Z,58.38
2019-02-15T16:15:14.121Z,53.68
2019-02-15T16:17:43.505Z,56.25
2019-02-15T16:20:13.816Z,58.50
2019-02-15T16:22:43.211Z,63.85
2019-02-15T16:25:12.645Z,59.67
2019-02-15T16:27:43.708Z,61.50
2019-02-15T16:30:14.395Z,60.85
2019-02-15T16:32:43.792Z,65.40
2019-02-15T16:35:13.500Z,64.65
2019-02-15T16:37:42.813Z,59.27
2019-02-15T16:40:16.005Z,76.72
2019-02-15T16:42:45.680Z,59.03
2019-02-15T16:45:15.848Z,58.95
2019-02-15T16:47:45.335Z,66.67
2019-02-15T16:50:15.029Z,66.28
2019-02-15T16:52:44.741Z,65.32
2019-02-15T16:55:14.182Z,67.00
2019-02-15T16:57:43.881Z,69.62
2019-02-15T17:00:13.767Z,76.75
2019-02-15T17:02:43.792Z,70.50
2019-02-15T17:05:13.897Z,75.70
2019-02-15T17:07:43.746Z,75.05
2019-02-15T17:10:13.366Z,75.32
2019-02-15T17:12:43.054Z,73.55
2019-02-15T17:15:14.587Z,72.50
2019-02-15T17:17:43.952Z,70.50
2019-02-15T17:20:13.483Z,79.92
2019-02-15T17:22:42.934Z,71.00
2019-02-15T17:25:12.437Z,65.70
2019-02-15T17:27:41.737Z,70.25
2019-02-15T17:30:11.744Z,68.75
2019-02-15T17:32:41.148Z,70.10
2019-02-15T17:35:11.403Z,68.12
2019-02-15T17:37:40.860Z,62.03
2019-02-15T17:40:12.112Z,68.40
2019-02-15T17:42:41.439Z,66.12
2019-02-15T17:45:12.341Z,65.32
2019-02-15T17:47:41.720Z,67.50
2019-02-15T17:50:12.125Z,69.17
2019-02-15T17:52:41.887Z,69.42
2019-02-15T17:55:11.346Z,69.82
2019-02-15T17:57:42.227Z,69.15
2019-02-15T18:00:13.269Z,74.27
2019-02-15T18:02:42.673Z,69.22
2019-02-15T18:05:17.776Z,70.20
2019-02-15T18:07:49.052Z,73.05
2019-02-15T18:10:18.892Z,76.02
2019-02-15T18:12:48.273Z,73.10
2019-02-15T18:15:17.754Z,70.85
2019-02-15T18:17:47.170Z,62.80
2019-02-15T18:20:16.654Z,74.75
2019-02-15T18:22:45.975Z,69.45
2019-02-15T18:25:15.343Z,73.25
2019-02-15T18:27:44.680Z,72.37
2019-02-15T18:30:16.123Z,69.67
2019-02-15T18:32:45.968Z,71.50
2019-02-15T18:35:15.374Z,69.80
2019-02-15T18:37:46.156Z,69.47
2019-02-15T18:40:15.591Z,75.47
2019-02-15T18:42:44.987Z,73.60
2019-02-15T18:45:16.621Z,70.97
2019-02-15T18:47:46.058Z,80.05
2019-02-15T18:50:15.475Z,76.37
2019-02-15T18:52:44.798Z,74.67
2019-02-15T18:55:14.178Z,76.42
2019-02-15T18:57:43.801Z,77.12
2019-02-15T19:00:15.676Z,68.90
2019-02-15T19:02:50.116Z,82.67
2019-02-15T19:05:19.847Z,70.40
2019-02-15T19:07:49.640Z,71.70
2019-02-15T19:10:20.866Z,66.12
2019-02-15T19:12:50.390Z,63.63
2019-02-15T19:15:20.095Z,73.90
2019-02-15T19:17:49.575Z,72.10
2019-02-15T19:20:19.051Z,70.62
2019-02-15T19:22:48.572Z,66.55
2019-02-15T19:25:20.781Z,69.70
2019-02-15T19:27:50.113Z,74.77
2019-02-15T19:30:31.748Z,71.87
2019-02-15T19:33:01.392Z,66.17
2019-02-15T19:35:30.847Z,67.65
2019-02-15T19:38:00.725Z,64.58
2019-02-15T19:40:30.111Z,69.20
2019-02-15T19:43:05.676Z,72.42
2019-02-15T19:45:35.127Z,67.97
2019-02-15T19:48:04.510Z,72.62
2019-02-15T19:50:33.980Z,72.97
2019-02-15T19:53:03.772Z,68.00
2019-02-15T19:55:33.266Z,72.00
2019-02-15T19:58:02.628Z,70.83
2019-02-15T20:00:32.015Z,65.35
2019-02-15T20:03:01.801Z,66.22
2019-02-15T20:05:31.289Z,65.17
2019-02-15T20:08:00.824Z,63.92
2019-02-15T20:10:30.327Z,68.47
2019-02-15T20:13:00.923Z,73.47
2019-02-15T20:15:30.569Z,72.12
2019-02-15T20:18:00.849Z,68.42
2019-02-15T20:20:30.488Z,70.03
2019-02-15T20:23:00.063Z,69.27
2019-02-15T20:25:29.831Z,68.87
2019-02-15T20:27:59.617Z,66.57
2019-02-15T20:30:29.472Z,68.52
2019-02-15T20:32:58.941Z,78.22
2019-02-15T20:35:28.968Z,66.55
2019-02-15T20:37:58.552Z,69.90
2019-02-15T20:40:28.919Z,65.00
2019-02-15T20:42:58.538Z,63.78
2019-02-15T20:45:27.969Z,61.23
2019-02-15T20:47:57.325Z,64.77
2019-02-15T20:50:26.866Z,64.05
2019-02-15T20:52:56.294Z,63.25
2019-02-15T20:55:26.488Z,66.50
2019-02-15T20:57:56.570Z,64.75
2019-02-15T21:00:30.003Z,64.03
2019-02-15T21:05:28.649Z,66.82
2019-02-15T21:07:59.549Z,56.60
2019-02-15T21:10:29.032Z,54.00
2019-02-15T21:12:58.913Z,57.03
2019-02-15T21:15:28.368Z,59.35
2019-02-15T21:17:57.838Z,51.65
2019-02-15T21:20:27.230Z,50.43
2019-02-15T21:22:56.602Z,46.88
2019-02-15T21:25:27.682Z,48.20
2019-02-15T21:27:56.974Z,50.28
2019-02-15T21:30:26.378Z,47.40
2019-02-15T21:32:55.757Z,42.03
2019-02-15T21:35:25.577Z,48.42
2019-02-15T21:37:54.890Z,43.78
2019-02-15T21:40:24.364Z,38.80
2019-02-15T21:42:54.142Z,42.65
2019-02-15T21:45:23.467Z,40.92
2019-02-15T21:47:52.874Z,45.73
2019-02-15T21:50:22.281Z,54.77
2019-02-15T21:52:51.674Z,46.58
2019-02-15T21:55:21.066Z,48.83
2019-02-15T21:57:50.428Z,46.55
2019-02-15T22:00:21.660Z,48.28
2019-02-15T22:02:51.154Z,47.75
2019-02-15T22:05:20.978Z,46.83
2019-02-15T22:07:50.386Z,54.00
2019-02-15T22:10:19.821Z,47.88
2019-02-15T22:12:49.508Z,47.95
2019-02-15T22:15:18.849Z,45.95
2019-02-15T22:17:48.356Z,54.63
2019-02-15T22:20:26.213Z,50.08
2019-02-15T22:22:49.125Z,44.80
2019-02-15T22:25:18.485Z,51.42
2019-02-15T22:27:47.952Z,57.27
2019-02-15T22:30:18.626Z,55.12
2019-02-15T22:32:48.250Z,52.95
2019-02-15T22:35:18.680Z,54.75
2019-02-15T22:37:48.181Z,55.40
2019-02-15T22:40:34.396Z,54.65
2019-02-15T22:43:07.046Z,49.03
2019-02-15T22:45:36.514Z,48.42
2019-02-15T22:48:05.913Z,50.55
2019-02-15T22:50:36.445Z,61.88
2019-02-15T22:53:06.120Z,63.05
2019-02-15T22:55:35.519Z,57.30
2019-02-15T22:58:04.947Z,61.58
2019-02-15T23:00:46.683Z,64.82
2019-02-15T23:03:17.583Z,56.48
2019-02-15T23:05:46.916Z,55.48
2019-02-15T23:08:16.687Z,50.43
2019-02-15T23:10:46.108Z,55.78
2019-02-15T23:13:15.513Z,51.83
2019-02-15T23:15:44.899Z,53.10
2019-02-15T23:18:14.259Z,53.25
2019-02-15T23:20:45.577Z,52.33
2019-02-15T23:23:15.068Z,52.03
2019-02-15T23:25:44.564Z,51.88
2019-02-15T23:28:13.975Z,55.92
2019-02-15T23:30:43.375Z,55.78
2019-02-15T23:33:12.892Z,54.67
2019-02-15T23:35:42.208Z,52.98
2019-02-15T23:38:11.632Z,54.03
2019-02-15T23:40:41.384Z,59.33
2019-02-15T23:43:11.088Z,55.70
2019-02-15T23:45:40.419Z,51.37
2019-02-15T23:48:09.790Z,50.38
2019-02-15T23:50:39.517Z,51.70
2019-02-15T23:53:08.828Z,53.35
2019-02-15T23:55:38.273Z,51.00
2019-02-15T23:58:07.664Z,56.63
